Latest Weather Observations for Wattamolla

IDN60801

Issued at 6:33 pm EDT Friday 19 December 2014 (issued every 30 minutes, with the page automatically refreshed every 10 minutes)

About weather observations | Map of weather stations | Latest weather observations for NSW | Other Formats
Station Details ID: 066208 Name: WATTAMOLLA AWS Lat: -34.14 Lon: 151.12 Height: 44.0 m
Data from the previous 72 hours. | See also: Recent months for locations in New South Wales
Date/Time
EDT
Temp
°C
App
Temp
°C
Dew
Point
Rel
Hum
%
Delta-T
°C
Wind Press
QNH
hPa
Press
MSL
hPa
Rain
since 9 am
mm
Dir
 
Spd
km/h
Gust
km/h
Spd
kts
Gust
kts
19/06:30pm - - - - - SSE 30 39 16 21 - - -
19/06:00pm - - - - - SSE 33 43 18 23 - - -
19/05:30pm - - - - - SSE 33 41 18 22 - - -
19/05:00pm - - - - - SSE 35 44 19 24 - - -
19/04:30pm - - - - - SSE 33 46 18 25 - - -
19/04:00pm - - - - - SSE 30 41 16 22 - - -
19/03:30pm - - - - - SSE 32 41 17 22 - - -
19/03:00pm - - - - - SSE 32 41 17 22 - - -
19/02:30pm - - - - - SSE 32 39 17 21 - - -
19/02:00pm - - - - - SSE 32 41 17 22 - - -
19/01:30pm - - - - - SSE 35 44 19 24 - - -
19/01:00pm - - - - - SSE 35 46 19 25 - - -
19/12:30pm - - - - - SSE 37 44 20 24 - - -
19/12:00pm - - - - - SSE 39 48 21 26 - - -
19/11:30am - - - - - S 39 43 21 23 - - -
19/11:00am - - - - - S 37 46 20 25 - - -
19/10:30am - - - - - S 39 50 21 27 - - -
19/10:00am - - - - - S 43 52 23 28 - - -
19/09:30am - - - - - S 41 50 22 27 - - -
19/09:00am - - - - - S 43 54 23 29 - - -
19/08:30am - - - - - S 43 52 23 28 - - -
19/08:00am - - - - - S 44 52 24 28 - - -
19/07:30am - - - - - S 46 57 25 31 - - -
19/07:00am - - - - - S 48 56 26 30 - - -
19/06:30am - - - - - S 54 61 29 33 - - -
19/06:00am - - - - - S 57 67 31 36 - - -
19/05:30am - - - - - S 59 69 32 37 - - -
19/05:00am - - - - - S 59 78 32 42 - - -
19/04:51am - - - - - S 59 78 32 42 - - -
19/04:30am - - - - - S 65 76 35 41 - - -
19/04:00am - - - - - S 61 82 33 44 - - -
19/03:33am - - - - - SW 46 85 25 46 - - -
19/03:30am - - - - - WSW 37 85 20 46 - - -
19/03:29am - - - - - W 33 85 18 46 - - -
19/03:28am - - - - - W 28 48 15 26 - - -
19/03:00am - - - - - WNW 24 32 13 17 - - -
19/02:30am - - - - - NW 22 32 12 17 - - -
19/01:00am - - - - - NW 26 30 14 16 - - -
19/12:30am - - - - - N 13 17 7 9 - - -
19/12:00am - - - - - NNW 17 19 9 10 - - -
 
Date/Time
EDT
Temp
°C
App
Temp
°C
Dew
Point
Rel
Hum
%
Delta-T
°C
Wind Press
QNH
hPa
Press
MSL
hPa
Rain
since 9 am
mm
Dir
 
Spd
km/h
Gust
km/h
Spd
kts
Gust
kts
18/11:30pm - - - - - NNW 15 19 8 10 - - -
18/11:00pm - - - - - NNW 13 13 7 7 - - -
18/10:30pm - - - - - NW 2 9 1 5 - - -
18/10:00pm - - - - - N 4 7 2 4 - - -
18/09:30pm - - - - - N 9 13 5 7 - - -
18/09:00pm - - - - - N 13 19 7 10 - - -
18/08:30pm - - - - - N 17 20 9 11 - - -
18/08:00pm - - - - - NNE 17 26 9 14 - - -
18/07:30pm - - - - - NNE 20 30 11 16 - - -
18/07:00pm - - - - - NNE 24 32 13 17 - - -
18/06:30pm - - - - - NE 17 28 9 15 - - -
18/06:00pm - - - - - NE 20 30 11 16 - - -
18/05:30pm - - - - - NE 19 30 10 16 - - -
18/05:00pm - - - - - NE 19 30 10 16 - - -
18/04:30pm - - - - - NE 20 32 11 17 - - -
18/04:00pm - - - - - NE 19 28 10 15 - - -
18/03:30pm - - - - - ENE 13 19 7 10 - - -
18/03:00pm - - - - - E 11 15 6 8 - - -
18/02:30pm - - - - - E 9 13 5 7 - - -
18/02:00pm - - - - - E 13 15 7 8 - - -
18/01:30pm - - - - - E 13 17 7 9 - - -
18/01:00pm - - - - - NE 15 19 8 10 - - -
18/12:30pm - - - - - ENE 13 19 7 10 - - -
18/12:00pm - - - - - ENE 13 19 7 10 - - -
18/11:30am - - - - - ENE 15 20 8 11 - - -
18/11:00am - - - - - E 13 19 7 10 - - -
18/10:30am - - - - - E 11 13 6 7 - - -
18/10:00am - - - - - ENE 13 17 7 9 - - -
18/09:30am - - - - - ESE 6 7 3 4 - - -
18/09:00am - - - - - SE 7 9 4 5 - - -
18/08:30am - - - - - SE 9 9 5 5 - - -
18/08:00am - - - - - CALM 0 0 0 0 - - -
18/07:30am - - - - - NNE 2 6 1 3 - - -
18/07:00am - - - - - CALM 0 0 0 0 - - -
18/06:30am - - - - - WNW 7 9 4 5 - - -
18/06:00am - - - - - NW 9 13 5 7 - - -
18/05:30am - - - - - WSW 9 9 5 5 - - -
18/05:00am - - - - - W 7 9 4 5 - - -
18/04:30am - - - - - W 6 7 3 4 - - -
18/04:00am - - - - - CALM 0 0 0 0 - - -
18/03:30am - - - - - NNE 9 13 5 7 - - -
18/03:00am - - - - - N 9 13 5 7 - - -
18/02:30am - - - - - N 11 15 6 8 - - -
18/02:00am - - - - - NNE 9 15 5 8 - - -
18/01:30am - - - - - NNE 7 9 4 5 - - -
18/01:00am - - - - - NE 6 13 3 7 - - -
18/12:30am - - - - - NNE 11 15 6 8 - - -
18/12:00am - - - - - NNE 9 11 5 6 - - -
 
Date/Time
EDT
Temp
°C
App
Temp
°C
Dew
Point
Rel
Hum
%
Delta-T
°C
Wind Press
QNH
hPa
Press
MSL
hPa
Rain
since 9 am
mm
Dir
 
Spd
km/h
Gust
km/h
Spd
kts
Gust
kts
17/11:30pm - - - - - E 6 9 3 5 - - -
17/11:00pm - - - - - SE 7 11 4 6 - - -
17/10:30pm - - - - - E 9 15 5 8 - - -
17/10:00pm - - - - - ESE 11 19 6 10 - - -
17/09:30pm - - - - - SE 17 20 9 11 - - -
17/09:00pm - - - - - SE 13 17 7 9 - - -
17/08:30pm - - - - - SE 13 26 7 14 - - -
17/08:00pm - - - - - SSE 22 35 12 19 - - -
17/07:30pm - - - - - SSE 28 32 15 17 - - -
17/07:00pm - - - - - SSE 28 35 15 19 - - -
17/06:30pm - - - - - SSE 30 35 16 19 - - -
17/06:00pm - - - - - SSE 28 35 15 19 - - -
17/05:30pm - - - - - SSE 30 39 16 21 - - -
17/05:00pm - - - - - SSE 28 39 15 21 - - -
17/04:30pm - - - - - SSE 30 37 16 20 - - -
17/04:00pm - - - - - SSE 28 37 15 20 - - -
17/03:30pm - - - - - SSE 30 39 16 21 - - -
17/03:00pm - - - - - SSE 30 39 16 21 - - -
17/02:30pm - - - - - SSE 32 39 17 21 - - -
17/02:00pm - - - - - SSE 35 44 19 24 - - -
17/01:30pm - - - - - SSE 32 41 17 22 - - -
17/01:00pm - - - - - SSE 32 41 17 22 - - -
17/12:30pm - - - - - SSE 35 43 19 23 - - -
17/12:00pm - - - - - SSE 35 46 19 25 - - -
17/11:30am - - - - - SSE 39 48 21 26 - - -
17/11:00am - - - - - SSE 43 52 23 28 - - -
17/10:30am - - - - - SSE 44 54 24 29 - - -
17/10:00am - - - - - S 48 57 26 31 - - -
17/09:30am - - - - - SSE 48 57 26 31 - - -
17/09:00am - - - - - S 52 61 28 33 - - -
17/08:30am - - - - - SSE 52 59 28 32 - - -
17/08:00am - - - - - S 50 57 27 31 - - -
17/07:30am - - - - - S 50 61 27 33 - - -
17/07:00am - - - - - S 57 72 31 39 - - -
17/06:30am - - - - - S 56 63 30 34 - - -
17/06:00am - - - - - S 57 63 31 34 - - -
17/05:30am - - - - - S 61 70 33 38 - - -
17/05:00am - - - - - S 67 78 36 42 - - -
17/04:36am - - - - - S 65 83 35 45 - - -
17/04:30am - - - - - S 65 80 35 43 - - -
17/04:00am - - - - - SSW 48 76 26 41 - - -
17/03:55am - - - - - W 32 70 17 38 - - -
17/03:54am - - - - - W 30 61 16 33 - - -
17/03:30am - - - - - NW 26 30 14 16 - - -
17/03:00am - - - - - NW 26 32 14 17 - - -
17/02:30am - - - - - NW 32 35 17 19 - - -
17/02:00am - - - - - NW 30 35 16 19 - - -
17/12:30am - - - - - NW 22 28 12 15 - - -
17/12:00am - - - - - NNW 15 19 8 10 - - -
 
Date/Time
EDT
Temp
°C
App
Temp
°C
Dew
Point
Rel
Hum
%
Delta-T
°C
Wind Press
QNH
hPa
Press
MSL
hPa
Rain
since 9 am
mm
Dir
 
Spd
km/h
Gust
km/h
Spd
kts
Gust
kts
16/11:30pm - - - - - N 11 15 6 8 - - -
16/11:00pm - - - - - NNW 9 15 5 8 - - -
16/10:30pm - - - - - - - - - - - - -
16/10:00pm - - - - - NNW 15 19 8 10 - - -
16/09:30pm - - - - - N 7 7 4 4 - - -
16/09:00pm - - - - - N 7 11 4 6 - - -
16/08:30pm - - - - - NNE 7 15 4 8 - - -
16/08:00pm - - - - - ENE 9 17 5 9 - - -
16/07:30pm - - - - - NNE 20 33 11 18 - - -
16/07:00pm - - - - - NNE 22 33 12 18 - - -

Other Formats:

Comma delimited format used in spreadsheet applications
http://www.bom.gov.au/fwo/IDN60801/IDN60801.95752.axf

JavaScript Object Notation format (JSON) in row-major order
http://www.bom.gov.au/fwo/IDN60801/IDN60801.95752.json